sensor_id;sensor_type;location;lat;lon;timestamp;P1;durP1;ratioP1;P2;durP2;ratioP2
67274;SDS011;55463;52.324;5.122;2022-12-24T00:01:31;35.53;;;5.65;;
67274;SDS011;55463;52.324;5.122;2022-12-24T00:03:56;38.25;;;6.15;;
67274;SDS011;55463;52.324;5.122;2022-12-24T00:06:22;40.25;;;6.50;;
67274;SDS011;55463;52.324;5.122;2022-12-24T00:08:48;40.30;;;6.22;;
67274;SDS011;55463;52.324;5.122;2022-12-24T00:11:15;37.03;;;5.75;;
67274;SDS011;55463;52.324;5.122;2022-12-24T00:13:41;36.75;;;6.00;;
67274;SDS011;55463;52.324;5.122;2022-12-24T00:16:06;44.75;;;7.13;;
67274;SDS011;55463;52.324;5.122;2022-12-24T00:18:32;37.05;;;5.97;;
67274;SDS011;55463;52.324;5.122;2022-12-24T00:20:57;38.03;;;6.60;;
67274;SDS011;55463;52.324;5.122;2022-12-24T00:23:23;46.45;;;6.13;;
67274;SDS011;55463;52.324;5.122;2022-12-24T00:25:49;46.28;;;6.82;;
67274;SDS011;55463;52.324;5.122;2022-12-24T00:28:14;36.03;;;5.47;;
67274;SDS011;55463;52.324;5.122;2022-12-24T00:30:41;42.03;;;5.47;;
67274;SDS011;55463;52.324;5.122;2022-12-24T00:33:07;38.83;;;5.65;;
67274;SDS011;55463;52.324;5.122;2022-12-24T00:35:33;52.15;;;7.57;;
67274;SDS011;55463;52.324;5.122;2022-12-24T00:37:59;43.65;;;6.72;;
67274;SDS011;55463;52.324;5.122;2022-12-24T00:40:25;41.60;;;5.63;;
67274;SDS011;55463;52.324;5.122;2022-12-24T00:42:50;37.03;;;6.22;;
67274;SDS011;55463;52.324;5.122;2022-12-24T00:45:15;44.63;;;6.80;;
67274;SDS011;55463;52.324;5.122;2022-12-24T00:47:41;42.90;;;6.45;;
67274;SDS011;55463;52.324;5.122;2022-12-24T00:50:06;43.35;;;6.40;;
67274;SDS011;55463;52.324;5.122;2022-12-24T00:52:32;44.88;;;5.63;;
67274;SDS011;55463;52.324;5.122;2022-12-24T00:54:58;50.25;;;6.45;;
67274;SDS011;55463;52.324;5.122;2022-12-24T00:57:23;49.60;;;6.72;;
67274;SDS011;55463;52.324;5.122;2022-12-24T00:59:49;45.85;;;6.90;;
67274;SDS011;55463;52.324;5.122;2022-12-24T01:02:14;49.80;;;6.70;;
67274;SDS011;55463;52.324;5.122;2022-12-24T01:04:39;44.40;;;6.50;;
67274;SDS011;55463;52.324;5.122;2022-12-24T01:07:23;52.28;;;7.57;;
67274;SDS011;55463;52.324;5.122;2022-12-24T01:09:49;40.40;;;6.32;;
67274;SDS011;55463;52.324;5.122;2022-12-24T01:12:14;37.53;;;6.07;;
67274;SDS011;55463;52.324;5.122;2022-12-24T01:14:39;41.55;;;6.85;;
67274;SDS011;55463;52.324;5.122;2022-12-24T01:17:05;45.25;;;6.13;;
67274;SDS011;55463;52.324;5.122;2022-12-24T01:19:30;44.83;;;6.43;;
67274;SDS011;55463;52.324;5.122;2022-12-24T01:21:56;57.45;;;6.90;;
67274;SDS011;55463;52.324;5.122;2022-12-24T01:24:22;48.75;;;6.47;;
67274;SDS011;55463;52.324;5.122;2022-12-24T01:26:47;49.42;;;7.70;;
67274;SDS011;55463;52.324;5.122;2022-12-24T01:29:13;56.35;;;7.30;;
67274;SDS011;55463;52.324;5.122;2022-12-24T01:31:39;48.00;;;5.55;;
67274;SDS011;55463;52.324;5.122;2022-12-24T01:34:04;49.40;;;7.10;;
67274;SDS011;55463;52.324;5.122;2022-12-24T01:36:30;51.78;;;7.22;;
67274;SDS011;55463;52.324;5.122;2022-12-24T01:38:55;49.13;;;6.53;;
67274;SDS011;55463;52.324;5.122;2022-12-24T01:41:21;47.78;;;6.32;;
67274;SDS011;55463;52.324;5.122;2022-12-24T01:47:16;57.55;;;6.97;;
67274;SDS011;55463;52.324;5.122;2022-12-24T01:52:26;45.45;;;7.07;;
67274;SDS011;55463;52.324;5.122;2022-12-24T01:54:59;49.00;;;7.28;;
67274;SDS011;55463;52.324;5.122;2022-12-24T01:57:42;44.38;;;6.53;;
67274;SDS011;55463;52.324;5.122;2022-12-24T02:00:13;58.37;;;8.33;;
67274;SDS011;55463;52.324;5.122;2022-12-24T02:02:40;64.78;;;8.50;;
67274;SDS011;55463;52.324;5.122;2022-12-24T02:05:09;54.40;;;7.68;;
67274;SDS011;55463;52.324;5.122;2022-12-24T02:07:39;62.28;;;7.35;;
67274;SDS011;55463;52.324;5.122;2022-12-24T02:10:06;59.17;;;7.05;;
67274;SDS011;55463;52.324;5.122;2022-12-24T02:12:33;49.55;;;5.82;;
67274;SDS011;55463;52.324;5.122;2022-12-24T02:15:01;53.20;;;6.22;;
67274;SDS011;55463;52.324;5.122;2022-12-24T02:17:30;43.83;;;6.75;;
67274;SDS011;55463;52.324;5.122;2022-12-24T02:20:28;47.47;;;6.70;;
67274;SDS011;55463;52.324;5.122;2022-12-24T02:34:17;48.58;;;5.95;;
67274;SDS011;55463;52.324;5.122;2022-12-24T02:36:53;42.42;;;5.93;;
67274;SDS011;55463;52.324;5.122;2022-12-24T02:42:14;43.25;;;6.75;;
67274;SDS011;55463;52.324;5.122;2022-12-24T02:44:50;45.15;;;6.40;;
67274;SDS011;55463;52.324;5.122;2022-12-24T02:47:20;47.28;;;6.63;;
67274;SDS011;55463;52.324;5.122;2022-12-24T02:49:48;51.33;;;7.63;;
67274;SDS011;55463;52.324;5.122;2022-12-24T02:55:00;47.92;;;7.47;;
67274;SDS011;55463;52.324;5.122;2022-12-24T03:00:35;49.15;;;6.55;;
67274;SDS011;55463;52.324;5.122;2022-12-24T03:03:29;46.65;;;6.15;;
67274;SDS011;55463;52.324;5.122;2022-12-24T03:06:11;36.13;;;4.87;;
67274;SDS011;55463;52.324;5.122;2022-12-24T03:08:53;41.28;;;4.80;;
67274;SDS011;55463;52.324;5.122;2022-12-24T03:11:24;40.92;;;5.70;;
67274;SDS011;55463;52.324;5.122;2022-12-24T03:13:50;43.10;;;5.88;;
67274;SDS011;55463;52.324;5.122;2022-12-24T03:16:21;40.08;;;5.65;;
67274;SDS011;55463;52.324;5.122;2022-12-24T03:18:49;42.67;;;5.97;;
67274;SDS011;55463;52.324;5.122;2022-12-24T03:21:18;41.95;;;5.93;;
67274;SDS011;55463;52.324;5.122;2022-12-24T03:23:45;49.88;;;6.25;;
67274;SDS011;55463;52.324;5.122;2022-12-24T03:26:11;39.53;;;5.00;;
67274;SDS011;55463;52.324;5.122;2022-12-24T03:28:41;45.67;;;6.43;;
67274;SDS011;55463;52.324;5.122;2022-12-24T03:31:07;51.15;;;6.40;;
67274;SDS011;55463;52.324;5.122;2022-12-24T03:33:33;38.65;;;6.78;;
67274;SDS011;55463;52.324;5.122;2022-12-24T03:35:59;33.47;;;4.82;;
67274;SDS011;55463;52.324;5.122;2022-12-24T03:38:25;33.75;;;4.85;;
67274;SDS011;55463;52.324;5.122;2022-12-24T03:40:50;44.47;;;5.70;;
67274;SDS011;55463;52.324;5.122;2022-12-24T03:43:15;33.83;;;4.93;;
67274;SDS011;55463;52.324;5.122;2022-12-24T03:45:41;42.63;;;5.22;;
67274;SDS011;55463;52.324;5.122;2022-12-24T03:48:06;46.13;;;5.47;;
67274;SDS011;55463;52.324;5.122;2022-12-24T03:50:31;36.35;;;5.10;;
67274;SDS011;55463;52.324;5.122;2022-12-24T03:52:57;49.45;;;5.78;;
67274;SDS011;55463;52.324;5.122;2022-12-24T03:55:22;35.25;;;5.07;;
67274;SDS011;55463;52.324;5.122;2022-12-24T03:57:48;34.90;;;5.15;;
67274;SDS011;55463;52.324;5.122;2022-12-24T04:00:13;39.70;;;5.82;;
67274;SDS011;55463;52.324;5.122;2022-12-24T04:02:39;45.10;;;6.18;;
67274;SDS011;55463;52.324;5.122;2022-12-24T04:05:05;42.90;;;6.43;;
67274;SDS011;55463;52.324;5.122;2022-12-24T04:07:32;40.75;;;5.80;;
67274;SDS011;55463;52.324;5.122;2022-12-24T04:09:58;36.83;;;5.53;;
67274;SDS011;55463;52.324;5.122;2022-12-24T04:12:23;45.20;;;5.57;;
67274;SDS011;55463;52.324;5.122;2022-12-24T04:14:48;36.10;;;5.07;;
67274;SDS011;55463;52.324;5.122;2022-12-24T04:17:14;38.10;;;5.57;;
67274;SDS011;55463;52.324;5.122;2022-12-24T04:19:40;30.55;;;5.25;;
67274;SDS011;55463;52.324;5.122;2022-12-24T04:22:05;38.55;;;4.40;;
67274;SDS011;55463;52.324;5.122;2022-12-24T04:24:31;37.40;;;4.68;;
67274;SDS011;55463;52.324;5.122;2022-12-24T04:26:56;41.55;;;5.38;;
67274;SDS011;55463;52.324;5.122;2022-12-24T04:29:21;41.90;;;5.20;;
67274;SDS011;55463;52.324;5.122;2022-12-24T04:31:47;55.15;;;6.15;;
67274;SDS011;55463;52.324;5.122;2022-12-24T04:34:12;45.38;;;5.25;;
67274;SDS011;55463;52.324;5.122;2022-12-24T04:36:37;52.60;;;5.78;;
67274;SDS011;55463;52.324;5.122;2022-12-24T04:39:03;40.83;;;5.70;;
67274;SDS011;55463;52.324;5.122;2022-12-24T04:41:28;44.17;;;5.15;;
67274;SDS011;55463;52.324;5.122;2022-12-24T04:43:54;43.50;;;5.63;;
67274;SDS011;55463;52.324;5.122;2022-12-24T04:46:24;34.33;;;4.63;;
67274;SDS011;55463;52.324;5.122;2022-12-24T04:48:51;49.28;;;5.75;;
67274;SDS011;55463;52.324;5.122;2022-12-24T04:51:18;43.70;;;5.57;;
67274;SDS011;55463;52.324;5.122;2022-12-24T04:53:44;43.63;;;5.10;;
67274;SDS011;55463;52.324;5.122;2022-12-24T04:56:13;35.28;;;5.07;;
67274;SDS011;55463;52.324;5.122;2022-12-24T04:58:45;40.22;;;5.38;;
67274;SDS011;55463;52.324;5.122;2022-12-24T05:01:15;33.88;;;4.82;;
67274;SDS011;55463;52.324;5.122;2022-12-24T05:03:42;43.08;;;5.82;;
67274;SDS011;55463;52.324;5.122;2022-12-24T05:06:09;33.42;;;4.72;;
67274;SDS011;55463;52.324;5.122;2022-12-24T05:08:37;30.10;;;5.53;;
67274;SDS011;55463;52.324;5.122;2022-12-24T05:11:03;42.72;;;5.28;;
67274;SDS011;55463;52.324;5.122;2022-12-24T05:13:30;33.80;;;5.15;;
67274;SDS011;55463;52.324;5.122;2022-12-24T05:15:56;39.38;;;6.10;;
67274;SDS011;55463;52.324;5.122;2022-12-24T05:18:21;27.52;;;4.82;;
67274;SDS011;55463;52.324;5.122;2022-12-24T05:20:47;33.88;;;5.55;;
67274;SDS011;55463;52.324;5.122;2022-12-24T05:23:16;38.13;;;5.65;;
67274;SDS011;55463;52.324;5.122;2022-12-24T05:26:10;43.80;;;5.20;;
67274;SDS011;55463;52.324;5.122;2022-12-24T05:28:45;38.75;;;5.13;;
67274;SDS011;55463;52.324;5.122;2022-12-24T05:31:11;39.60;;;5.68;;
67274;SDS011;55463;52.324;5.122;2022-12-24T05:33:37;46.03;;;5.93;;
67274;SDS011;55463;52.324;5.122;2022-12-24T05:36:02;38.40;;;5.97;;
67274;SDS011;55463;52.324;5.122;2022-12-24T05:38:28;45.78;;;5.70;;
67274;SDS011;55463;52.324;5.122;2022-12-24T05:40:53;45.65;;;5.35;;
67274;SDS011;55463;52.324;5.122;2022-12-24T05:43:18;39.25;;;5.68;;
67274;SDS011;55463;52.324;5.122;2022-12-24T05:45:44;42.13;;;5.75;;
67274;SDS011;55463;52.324;5.122;2022-12-24T05:48:09;48.53;;;5.72;;
67274;SDS011;55463;52.324;5.122;2022-12-24T05:50:35;55.13;;;6.22;;
67274;SDS011;55463;52.324;5.122;2022-12-24T05:53:02;53.97;;;5.75;;
67274;SDS011;55463;52.324;5.122;2022-12-24T05:55:28;44.55;;;6.38;;
67274;SDS011;55463;52.324;5.122;2022-12-24T05:57:53;40.25;;;5.32;;
67274;SDS011;55463;52.324;5.122;2022-12-24T06:00:19;47.47;;;5.57;;
67274;SDS011;55463;52.324;5.122;2022-12-24T06:02:44;41.72;;;5.50;;
67274;SDS011;55463;52.324;5.122;2022-12-24T06:05:10;48.45;;;5.55;;
67274;SDS011;55463;52.324;5.122;2022-12-24T06:07:35;38.78;;;5.30;;
67274;SDS011;55463;52.324;5.122;2022-12-24T06:10:01;46.00;;;5.68;;
67274;SDS011;55463;52.324;5.122;2022-12-24T06:12:26;49.58;;;5.50;;
67274;SDS011;55463;52.324;5.122;2022-12-24T06:14:51;47.40;;;5.65;;
67274;SDS011;55463;52.324;5.122;2022-12-24T06:17:17;39.72;;;5.80;;
67274;SDS011;55463;52.324;5.122;2022-12-24T06:19:42;41.97;;;5.50;;
67274;SDS011;55463;52.324;5.122;2022-12-24T06:22:08;41.92;;;5.88;;
67274;SDS011;55463;52.324;5.122;2022-12-24T06:24:33;33.50;;;4.93;;
67274;SDS011;55463;52.324;5.122;2022-12-24T06:26:59;37.35;;;6.43;;
67274;SDS011;55463;52.324;5.122;2022-12-24T06:29:24;41.50;;;6.20;;
67274;SDS011;55463;52.324;5.122;2022-12-24T06:31:49;53.95;;;6.60;;
67274;SDS011;55463;52.324;5.122;2022-12-24T06:34:16;47.00;;;5.60;;
67274;SDS011;55463;52.324;5.122;2022-12-24T06:36:41;45.80;;;7.22;;
67274;SDS011;55463;52.324;5.122;2022-12-24T06:39:06;42.72;;;6.45;;
67274;SDS011;55463;52.324;5.122;2022-12-24T06:41:32;50.45;;;6.15;;
67274;SDS011;55463;52.324;5.122;2022-12-24T06:43:57;45.72;;;5.93;;
67274;SDS011;55463;52.324;5.122;2022-12-24T06:46:23;40.72;;;5.55;;
67274;SDS011;55463;52.324;5.122;2022-12-24T06:48:48;45.38;;;6.82;;
67274;SDS011;55463;52.324;5.122;2022-12-24T06:51:14;48.55;;;6.10;;
67274;SDS011;55463;52.324;5.122;2022-12-24T06:53:41;50.78;;;5.57;;
67274;SDS011;55463;52.324;5.122;2022-12-24T06:56:08;37.58;;;5.78;;
67274;SDS011;55463;52.324;5.122;2022-12-24T06:58:35;41.90;;;5.43;;
67274;SDS011;55463;52.324;5.122;2022-12-24T07:01:02;42.20;;;6.10;;
67274;SDS011;55463;52.324;5.122;2022-12-24T07:03:29;43.05;;;5.35;;
67274;SDS011;55463;52.324;5.122;2022-12-24T07:05:55;61.80;;;6.07;;
67274;SDS011;55463;52.324;5.122;2022-12-24T07:08:20;39.08;;;5.30;;
67274;SDS011;55463;52.324;5.122;2022-12-24T07:10:47;46.13;;;5.90;;
67274;SDS011;55463;52.324;5.122;2022-12-24T07:13:13;51.58;;;6.50;;
67274;SDS011;55463;52.324;5.122;2022-12-24T07:15:39;38.97;;;6.53;;
67274;SDS011;55463;52.324;5.122;2022-12-24T07:18:04;42.40;;;5.72;;
67274;SDS011;55463;52.324;5.122;2022-12-24T07:20:29;42.05;;;5.75;;
67274;SDS011;55463;52.324;5.122;2022-12-24T07:22:55;40.50;;;5.75;;
67274;SDS011;55463;52.324;5.122;2022-12-24T07:25:20;42.63;;;7.15;;
67274;SDS011;55463;52.324;5.122;2022-12-24T07:27:46;54.95;;;7.45;;
67274;SDS011;55463;52.324;5.122;2022-12-24T07:30:11;48.85;;;6.05;;
67274;SDS011;55463;52.324;5.122;2022-12-24T07:32:36;49.15;;;6.55;;
67274;SDS011;55463;52.324;5.122;2022-12-24T07:35:02;44.13;;;5.47;;
67274;SDS011;55463;52.324;5.122;2022-12-24T07:37:27;50.40;;;6.93;;
67274;SDS011;55463;52.324;5.122;2022-12-24T07:39:53;50.50;;;7.45;;
67274;SDS011;55463;52.324;5.122;2022-12-24T07:42:18;43.80;;;6.80;;
67274;SDS011;55463;52.324;5.122;2022-12-24T07:44:44;44.75;;;6.28;;
67274;SDS011;55463;52.324;5.122;2022-12-24T07:47:09;36.97;;;5.47;;
67274;SDS011;55463;52.324;5.122;2022-12-24T07:49:35;41.08;;;6.63;;
67274;SDS011;55463;52.324;5.122;2022-12-24T07:52:01;50.70;;;7.35;;
67274;SDS011;55463;52.324;5.122;2022-12-24T07:54:26;44.60;;;6.15;;
67274;SDS011;55463;52.324;5.122;2022-12-24T07:56:52;54.83;;;7.60;;
67274;SDS011;55463;52.324;5.122;2022-12-24T07:59:17;50.33;;;6.35;;
67274;SDS011;55463;52.324;5.122;2022-12-24T08:01:43;55.25;;;6.55;;
67274;SDS011;55463;52.324;5.122;2022-12-24T08:04:09;41.33;;;5.95;;
67274;SDS011;55463;52.324;5.122;2022-12-24T08:06:34;59.63;;;6.93;;
67274;SDS011;55463;52.324;5.122;2022-12-24T08:09:00;55.15;;;6.88;;
67274;SDS011;55463;52.324;5.122;2022-12-24T08:11:25;52.65;;;6.93;;
67274;SDS011;55463;52.324;5.122;2022-12-24T08:13:51;54.85;;;7.43;;
67274;SDS011;55463;52.324;5.122;2022-12-24T08:16:16;49.28;;;7.55;;
67274;SDS011;55463;52.324;5.122;2022-12-24T08:18:41;38.58;;;5.78;;
67274;SDS011;55463;52.324;5.122;2022-12-24T08:21:07;57.78;;;7.43;;
67274;SDS011;55463;52.324;5.122;2022-12-24T08:23:34;57.25;;;7.07;;
67274;SDS011;55463;52.324;5.122;2022-12-24T08:26:00;60.85;;;6.78;;
67274;SDS011;55463;52.324;5.122;2022-12-24T08:28:25;63.60;;;8.10;;
67274;SDS011;55463;52.324;5.122;2022-12-24T08:30:51;59.25;;;7.55;;
67274;SDS011;55463;52.324;5.122;2022-12-24T08:33:17;53.17;;;7.60;;
67274;SDS011;55463;52.324;5.122;2022-12-24T08:35:47;57.00;;;8.57;;
67274;SDS011;55463;52.324;5.122;2022-12-24T08:38:13;53.77;;;6.50;;
67274;SDS011;55463;52.324;5.122;2022-12-24T08:40:39;49.60;;;7.80;;
67274;SDS011;55463;52.324;5.122;2022-12-24T08:43:04;60.03;;;7.57;;
67274;SDS011;55463;52.324;5.122;2022-12-24T08:45:29;58.85;;;6.68;;
67274;SDS011;55463;52.324;5.122;2022-12-24T08:47:55;61.85;;;8.50;;
67274;SDS011;55463;52.324;5.122;2022-12-24T08:50:23;58.38;;;7.05;;
67274;SDS011;55463;52.324;5.122;2022-12-24T08:52:48;60.70;;;7.13;;
67274;SDS011;55463;52.324;5.122;2022-12-24T08:55:14;64.15;;;7.55;;
67274;SDS011;55463;52.324;5.122;2022-12-24T08:57:39;50.20;;;7.18;;
67274;SDS011;55463;52.324;5.122;2022-12-24T09:00:05;50.63;;;7.30;;
67274;SDS011;55463;52.324;5.122;2022-12-24T09:02:31;58.47;;;8.18;;
67274;SDS011;55463;52.324;5.122;2022-12-24T09:04:57;43.20;;;6.03;;
67274;SDS011;55463;52.324;5.122;2022-12-24T09:07:22;48.20;;;6.82;;
67274;SDS011;55463;52.324;5.122;2022-12-24T09:09:48;51.00;;;7.18;;
67274;SDS011;55463;52.324;5.122;2022-12-24T09:12:13;44.00;;;6.78;;
67274;SDS011;55463;52.324;5.122;2022-12-24T09:14:39;49.10;;;7.15;;
67274;SDS011;55463;52.324;5.122;2022-12-24T09:17:04;52.08;;;6.47;;
67274;SDS011;55463;52.324;5.122;2022-12-24T09:19:29;66.22;;;8.38;;
67274;SDS011;55463;52.324;5.122;2022-12-24T09:21:55;45.28;;;5.80;;
67274;SDS011;55463;52.324;5.122;2022-12-24T09:24:20;39.63;;;6.07;;
67274;SDS011;55463;52.324;5.122;2022-12-24T09:26:46;52.85;;;7.35;;
67274;SDS011;55463;52.324;5.122;2022-12-24T09:29:13;44.75;;;6.82;;
67274;SDS011;55463;52.324;5.122;2022-12-24T09:31:39;60.28;;;8.15;;
67274;SDS011;55463;52.324;5.122;2022-12-24T09:34:05;50.63;;;7.35;;
67274;SDS011;55463;52.324;5.122;2022-12-24T09:36:30;51.70;;;8.05;;
67274;SDS011;55463;52.324;5.122;2022-12-24T09:38:55;53.85;;;7.20;;
67274;SDS011;55463;52.324;5.122;2022-12-24T09:43:46;49.20;;;6.35;;
67274;SDS011;55463;52.324;5.122;2022-12-24T09:46:31;43.90;;;6.45;;
67274;SDS011;55463;52.324;5.122;2022-12-24T09:49:03;54.55;;;6.93;;
67274;SDS011;55463;52.324;5.122;2022-12-24T09:51:38;51.92;;;7.72;;
67274;SDS011;55463;52.324;5.122;2022-12-24T09:54:24;46.70;;;7.60;;
67274;SDS011;55463;52.324;5.122;2022-12-24T09:56:53;46.63;;;5.97;;
67274;SDS011;55463;52.324;5.122;2022-12-24T09:59:23;44.83;;;6.88;;
67274;SDS011;55463;52.324;5.122;2022-12-24T10:04:19;51.90;;;7.15;;
67274;SDS011;55463;52.324;5.122;2022-12-24T10:06:50;59.80;;;7.75;;
67274;SDS011;55463;52.324;5.122;2022-12-24T10:09:19;47.60;;;8.55;;
67274;SDS011;55463;52.324;5.122;2022-12-24T10:31:27;38.90;;;6.20;;
67274;SDS011;55463;52.324;5.122;2022-12-24T10:33:56;51.70;;;7.25;;
67274;SDS011;55463;52.324;5.122;2022-12-24T10:36:26;57.55;;;7.28;;
67274;SDS011;55463;52.324;5.122;2022-12-24T10:38:52;46.90;;;7.93;;
67274;SDS011;55463;52.324;5.122;2022-12-24T10:41:18;50.40;;;7.20;;
67274;SDS011;55463;52.324;5.122;2022-12-24T10:43:44;36.33;;;6.15;;
67274;SDS011;55463;52.324;5.122;2022-12-24T10:46:16;46.53;;;7.40;;
67274;SDS011;55463;52.324;5.122;2022-12-24T10:48:59;47.80;;;6.95;;
67274;SDS011;55463;52.324;5.122;2022-12-24T10:54:01;46.13;;;6.20;;
67274;SDS011;55463;52.324;5.122;2022-12-24T10:56:30;37.75;;;6.32;;
67274;SDS011;55463;52.324;5.122;2022-12-24T10:58:56;42.05;;;8.20;;
67274;SDS011;55463;52.324;5.122;2022-12-24T11:01:55;47.88;;;7.75;;
67274;SDS011;55463;52.324;5.122;2022-12-24T11:04:15;50.10;;;7.13;;
67274;SDS011;55463;52.324;5.122;2022-12-24T11:06:53;41.97;;;6.78;;
67274;SDS011;55463;52.324;5.122;2022-12-24T11:09:26;44.35;;;6.32;;
67274;SDS011;55463;52.324;5.122;2022-12-24T11:11:54;46.28;;;6.22;;
67274;SDS011;55463;52.324;5.122;2022-12-24T11:14:20;42.97;;;6.47;;
67274;SDS011;55463;52.324;5.122;2022-12-24T11:16:47;43.92;;;5.43;;
67274;SDS011;55463;52.324;5.122;2022-12-24T11:19:19;44.35;;;6.72;;
67274;SDS011;55463;52.324;5.122;2022-12-24T11:22:02;33.97;;;5.30;;
67274;SDS011;55463;52.324;5.122;2022-12-24T11:24:34;42.58;;;6.32;;
67274;SDS011;55463;52.324;5.122;2022-12-24T11:32:41;38.45;;;6.32;;
67274;SDS011;55463;52.324;5.122;2022-12-24T11:35:14;33.63;;;5.28;;
67274;SDS011;55463;52.324;5.122;2022-12-24T11:37:45;39.17;;;5.63;;
67274;SDS011;55463;52.324;5.122;2022-12-24T11:40:19;32.90;;;4.93;;
67274;SDS011;55463;52.324;5.122;2022-12-24T11:42:45;29.23;;;5.03;;
67274;SDS011;55463;52.324;5.122;2022-12-24T11:47:46;30.60;;;4.93;;
67274;SDS011;55463;52.324;5.122;2022-12-24T11:50:18;39.40;;;5.30;;
67274;SDS011;55463;52.324;5.122;2022-12-24T11:53:06;28.25;;;4.72;;
67274;SDS011;55463;52.324;5.122;2022-12-24T11:55:52;26.33;;;4.70;;
67274;SDS011;55463;52.324;5.122;2022-12-24T11:58:24;28.52;;;4.47;;
67274;SDS011;55463;52.324;5.122;2022-12-24T12:03:58;31.08;;;4.38;;
67274;SDS011;55463;52.324;5.122;2022-12-24T12:09:03;29.63;;;5.03;;
67274;SDS011;55463;52.324;5.122;2022-12-24T12:11:31;36.55;;;6.03;;
67274;SDS011;55463;52.324;5.122;2022-12-24T12:13:59;37.55;;;5.07;;
67274;SDS011;55463;52.324;5.122;2022-12-24T12:22:41;45.60;;;5.72;;
67274;SDS011;55463;52.324;5.122;2022-12-24T12:25:21;29.23;;;5.07;;
67274;SDS011;55463;52.324;5.122;2022-12-24T12:27:51;34.38;;;5.13;;
67274;SDS011;55463;52.324;5.122;2022-12-24T12:30:21;37.63;;;5.68;;
67274;SDS011;55463;52.324;5.122;2022-12-24T12:35:41;32.85;;;4.43;;
67274;SDS011;55463;52.324;5.122;2022-12-24T12:38:09;30.20;;;4.95;;
67274;SDS011;55463;52.324;5.122;2022-12-24T12:40:42;32.65;;;4.75;;
67274;SDS011;55463;52.324;5.122;2022-12-24T12:46:23;34.28;;;3.92;;
67274;SDS011;55463;52.324;5.122;2022-12-24T12:57:34;31.48;;;4.70;;
67274;SDS011;55463;52.324;5.122;2022-12-24T13:00:11;29.25;;;4.95;;
67274;SDS011;55463;52.324;5.122;2022-12-24T13:03:04;32.67;;;5.38;;
67274;SDS011;55463;52.324;5.122;2022-12-24T13:08:59;38.08;;;5.47;;
67274;SDS011;55463;52.324;5.122;2022-12-24T13:25:54;24.77;;;4.40;;
67274;SDS011;55463;52.324;5.122;2022-12-24T13:30:47;28.63;;;4.38;;
67274;SDS011;55463;52.324;5.122;2022-12-24T13:49:20;29.88;;;4.72;;
67274;SDS011;55463;52.324;5.122;2022-12-24T13:51:51;27.73;;;4.43;;
67274;SDS011;55463;52.324;5.122;2022-12-24T13:54:44;31.25;;;4.45;;
67274;SDS011;55463;52.324;5.122;2022-12-24T13:57:59;33.13;;;5.45;;
67274;SDS011;55463;52.324;5.122;2022-12-24T14:05:35;25.98;;;4.00;;
67274;SDS011;55463;52.324;5.122;2022-12-24T14:08:04;30.50;;;4.97;;
67274;SDS011;55463;52.324;5.122;2022-12-24T14:10:42;25.73;;;4.07;;
67274;SDS011;55463;52.324;5.122;2022-12-24T14:16:13;27.42;;;4.60;;
67274;SDS011;55463;52.324;5.122;2022-12-24T14:18:44;26.50;;;4.55;;
67274;SDS011;55463;52.324;5.122;2022-12-24T14:21:21;29.25;;;4.05;;
67274;SDS011;55463;52.324;5.122;2022-12-24T14:23:56;28.13;;;3.83;;
67274;SDS011;55463;52.324;5.122;2022-12-24T14:26:32;33.05;;;4.72;;
67274;SDS011;55463;52.324;5.122;2022-12-24T14:29:06;33.92;;;5.18;;
67274;SDS011;55463;52.324;5.122;2022-12-24T14:31:51;24.27;;;3.47;;
67274;SDS011;55463;52.324;5.122;2022-12-24T14:34:21;33.65;;;4.95;;
67274;SDS011;55463;52.324;5.122;2022-12-24T14:36:47;27.05;;;4.35;;
67274;SDS011;55463;52.324;5.122;2022-12-24T14:39:21;26.25;;;5.05;;
67274;SDS011;55463;52.324;5.122;2022-12-24T14:47:52;25.75;;;5.35;;
67274;SDS011;55463;52.324;5.122;2022-12-24T14:56:14;25.88;;;4.68;;
67274;SDS011;55463;52.324;5.122;2022-12-24T14:58:42;27.75;;;5.43;;
67274;SDS011;55463;52.324;5.122;2022-12-24T15:01:20;35.40;;;5.43;;
67274;SDS011;55463;52.324;5.122;2022-12-24T15:04:00;25.13;;;4.95;;
67274;SDS011;55463;52.324;5.122;2022-12-24T15:06:26;28.50;;;5.38;;
67274;SDS011;55463;52.324;5.122;2022-12-24T15:08:53;36.08;;;6.50;;
67274;SDS011;55463;52.324;5.122;2022-12-24T15:11:19;33.40;;;4.95;;
67274;SDS011;55463;52.324;5.122;2022-12-24T15:13:48;36.58;;;5.22;;
67274;SDS011;55463;52.324;5.122;2022-12-24T15:16:18;36.70;;;5.25;;
67274;SDS011;55463;52.324;5.122;2022-12-24T15:18:48;39.73;;;5.80;;
67274;SDS011;55463;52.324;5.122;2022-12-24T15:21:38;30.17;;;5.22;;
67274;SDS011;55463;52.324;5.122;2022-12-24T15:24:22;34.33;;;5.30;;
67274;SDS011;55463;52.324;5.122;2022-12-24T15:26:48;32.70;;;4.65;;
67274;SDS011;55463;52.324;5.122;2022-12-24T15:29:19;41.80;;;6.68;;
67274;SDS011;55463;52.324;5.122;2022-12-24T15:31:53;25.73;;;5.28;;
67274;SDS011;55463;52.324;5.122;2022-12-24T15:34:24;29.98;;;5.88;;
67274;SDS011;55463;52.324;5.122;2022-12-24T15:37:29;34.03;;;4.55;;
67274;SDS011;55463;52.324;5.122;2022-12-24T15:40:07;34.83;;;5.15;;
67274;SDS011;55463;52.324;5.122;2022-12-24T15:42:34;34.65;;;4.80;;
67274;SDS011;55463;52.324;5.122;2022-12-24T15:52:51;38.97;;;5.00;;
67274;SDS011;55463;52.324;5.122;2022-12-24T15:55:27;26.35;;;4.50;;
67274;SDS011;55463;52.324;5.122;2022-12-24T15:57:57;29.25;;;4.57;;
67274;SDS011;55463;52.324;5.122;2022-12-24T16:00:23;32.80;;;5.03;;
67274;SDS011;55463;52.324;5.122;2022-12-24T16:05:44;36.45;;;5.38;;
67274;SDS011;55463;52.324;5.122;2022-12-24T16:10:43;33.88;;;5.03;;
67274;SDS011;55463;52.324;5.122;2022-12-24T16:13:12;31.90;;;5.13;;
67274;SDS011;55463;52.324;5.122;2022-12-24T16:18:32;36.13;;;5.90;;
67274;SDS011;55463;52.324;5.122;2022-12-24T16:21:00;33.85;;;4.50;;
67274;SDS011;55463;52.324;5.122;2022-12-24T16:23:29;38.25;;;5.43;;
67274;SDS011;55463;52.324;5.122;2022-12-24T16:26:00;23.33;;;4.63;;
67274;SDS011;55463;52.324;5.122;2022-12-24T16:28:26;42.90;;;5.88;;
67274;SDS011;55463;52.324;5.122;2022-12-24T16:30:51;33.40;;;5.45;;
67274;SDS011;55463;52.324;5.122;2022-12-24T16:33:19;44.08;;;5.30;;
67274;SDS011;55463;52.324;5.122;2022-12-24T16:35:47;28.83;;;5.10;;
67274;SDS011;55463;52.324;5.122;2022-12-24T16:38:13;34.65;;;4.90;;
67274;SDS011;55463;52.324;5.122;2022-12-24T16:40:41;29.13;;;5.00;;
67274;SDS011;55463;52.324;5.122;2022-12-24T16:43:07;29.10;;;5.45;;
67274;SDS011;55463;52.324;5.122;2022-12-24T16:45:52;32.65;;;4.95;;
67274;SDS011;55463;52.324;5.122;2022-12-24T16:48:22;27.85;;;5.57;;
67274;SDS011;55463;52.324;5.122;2022-12-24T16:50:49;33.83;;;5.20;;
67274;SDS011;55463;52.324;5.122;2022-12-24T16:53:15;24.50;;;4.70;;
67274;SDS011;55463;52.324;5.122;2022-12-24T16:55:42;34.22;;;4.75;;
67274;SDS011;55463;52.324;5.122;2022-12-24T16:58:11;36.35;;;5.15;;
67274;SDS011;55463;52.324;5.122;2022-12-24T17:00:36;33.78;;;5.57;;
67274;SDS011;55463;52.324;5.122;2022-12-24T17:03:02;40.13;;;6.63;;
67274;SDS011;55463;52.324;5.122;2022-12-24T17:05:28;32.58;;;6.60;;
67274;SDS011;55463;52.324;5.122;2022-12-24T17:07:55;37.80;;;6.15;;
67274;SDS011;55463;52.324;5.122;2022-12-24T17:10:23;36.90;;;7.03;;
67274;SDS011;55463;52.324;5.122;2022-12-24T17:12:48;38.40;;;5.65;;
67274;SDS011;55463;52.324;5.122;2022-12-24T17:15:14;47.47;;;6.82;;
67274;SDS011;55463;52.324;5.122;2022-12-24T17:17:39;41.83;;;6.80;;
67274;SDS011;55463;52.324;5.122;2022-12-24T17:20:05;36.35;;;6.72;;
67274;SDS011;55463;52.324;5.122;2022-12-24T17:22:31;39.53;;;6.85;;